createdAt,value
2023-02-11T00:00:28.572Z,103037.75
2023-02-11T00:02:58.794Z,103038.84
2023-02-11T00:05:31.515Z,103046.75
2023-02-11T00:08:01.553Z,103043.41
2023-02-11T00:10:31.696Z,103048.97
2023-02-11T00:13:01.846Z,103047.28
2023-02-11T00:15:31.995Z,103057.38
2023-02-11T00:18:02.011Z,103062.81
2023-02-11T00:20:34.653Z,103054.19
2023-02-11T00:23:04.661Z,103052.41
2023-02-11T00:25:34.805Z,103050.88
2023-02-11T00:28:04.932Z,103053.63
2023-02-11T00:30:35.460Z,103046.56
2023-02-11T00:33:05.701Z,103056.53
2023-02-11T00:35:40.470Z,103041.25
2023-02-11T00:38:11.238Z,103052.09
2023-02-11T00:40:41.268Z,103039.34
2023-02-11T00:43:11.358Z,103048.91
2023-02-11T00:45:41.414Z,103040.03
2023-02-11T00:48:11.466Z,103047.91
2023-02-11T00:50:44.137Z,103041.00
2023-02-11T00:53:14.388Z,103032.97
2023-02-11T00:55:44.503Z,103028.25
2023-02-11T00:58:14.681Z,103022.31
2023-02-11T01:00:45.775Z,103020.50
2023-02-11T01:03:17.095Z,103029.47
2023-02-11T01:05:50.080Z,103023.53
2023-02-11T01:08:20.436Z,102985.47
2023-02-11T01:10:58.002Z,102967.16
2023-02-11T01:13:29.026Z,103019.50
2023-02-11T01:16:00.124Z,103013.91
2023-02-11T01:18:30.524Z,103010.72
2023-02-11T01:21:03.204Z,103006.56
2023-02-11T01:23:33.408Z,103007.66
2023-02-11T01:26:03.484Z,102999.75
2023-02-11T01:28:34.790Z,103006.13
2023-02-11T01:31:06.329Z,103006.69
2023-02-11T01:33:36.423Z,102980.88
2023-02-11T01:36:12.281Z,102961.97
2023-02-11T01:38:44.611Z,102990.88
2023-02-11T01:41:17.569Z,102991.56
2023-02-11T01:43:50.206Z,102984.78
2023-02-11T01:46:36.619Z,102982.41
2023-02-11T01:49:10.418Z,102979.75
2023-02-11T01:51:46.970Z,102980.03
2023-02-11T01:54:35.785Z,102969.38
2023-02-11T01:57:20.164Z,102973.94
2023-02-11T01:59:57.535Z,102970.34
2023-02-11T02:02:33.742Z,102966.88
2023-02-11T02:05:09.989Z,102968.44
2023-02-11T02:07:50.230Z,102967.59
2023-02-11T02:10:25.816Z,102962.56
2023-02-11T02:12:56.022Z,102958.53
2023-02-11T02:15:35.424Z,102960.88
2023-02-11T02:18:24.322Z,102937.69
2023-02-11T02:21:27.469Z,102962.22
2023-02-11T02:24:34.616Z,102976.34
2023-02-11T02:27:26.976Z,102973.72
2023-02-11T02:30:38.019Z,102963.19
2023-02-11T02:33:25.086Z,102966.81
2023-02-11T02:36:07.390Z,102957.38
2023-02-11T02:38:41.498Z,102957.38
2023-02-11T02:41:14.122Z,102954.72
2023-02-11T02:43:46.845Z,102949.63
2023-02-11T02:46:20.012Z,102902.44
2023-02-11T02:48:54.454Z,102943.13
2023-02-11T02:51:42.473Z,102945.88
2023-02-11T02:54:31.911Z,102942.28
2023-02-11T02:57:13.018Z,102936.47
2023-02-11T02:59:53.562Z,102939.50
2023-02-11T03:02:29.954Z,102929.91
2023-02-11T03:05:09.218Z,102927.28
2023-02-11T03:07:44.765Z,102925.19
2023-02-11T03:10:19.995Z,102929.47
2023-02-11T03:12:52.532Z,102916.31
2023-02-11T03:15:24.567Z,102917.81
2023-02-11T03:17:57.525Z,102914.81
2023-02-11T03:20:33.008Z,102906.75
2023-02-11T03:23:09.230Z,102907.25
2023-02-11T03:25:46.986Z,102902.00
2023-02-11T03:28:22.053Z,102894.50
2023-02-11T03:30:58.232Z,102906.00
2023-02-11T03:33:32.015Z,102904.72
2023-02-11T03:36:12.204Z,102894.97
2023-02-11T03:38:49.000Z,102915.13
2023-02-11T03:41:24.331Z,102909.72
2023-02-11T03:43:59.389Z,102912.78
2023-02-11T03:46:34.346Z,102908.94
2023-02-11T03:49:08.191Z,102900.06
2023-02-11T03:51:42.320Z,102893.97
2023-02-11T03:54:17.311Z,102857.91
2023-02-11T03:56:52.827Z,102883.59
2023-02-11T03:59:23.241Z,102826.97
2023-02-11T04:01:53.536Z,102892.03
2023-02-11T04:04:23.863Z,102887.88
2023-02-11T04:06:56.579Z,102884.69
2023-02-11T04:09:26.632Z,102884.97
2023-02-11T04:11:56.716Z,102883.41
2023-02-11T04:14:26.713Z,102849.38
2023-02-11T04:16:56.772Z,102873.44
2023-02-11T04:19:26.918Z,102849.81
2023-02-11T04:21:59.758Z,102875.63
2023-02-11T04:24:29.957Z,102875.63
2023-02-11T04:27:00.000Z,102848.25
2023-02-11T04:29:30.318Z,102878.69
2023-02-11T04:32:00.492Z,102871.50
2023-02-11T04:34:30.719Z,102827.38
2023-02-11T04:37:03.455Z,102862.19
2023-02-11T04:39:33.533Z,102877.03
2023-02-11T04:42:03.787Z,102864.66
2023-02-11T04:44:34.243Z,102879.19
2023-02-11T04:47:04.411Z,102872.28
2023-02-11T04:49:34.531Z,102866.59
2023-02-11T04:52:07.172Z,102878.75
2023-02-11T04:54:37.490Z,102876.13
2023-02-11T04:57:07.640Z,102842.69
2023-02-11T04:59:37.687Z,102882.50
2023-02-11T05:02:08.148Z,102880.81
2023-02-11T05:04:38.201Z,102883.56
2023-02-11T05:07:10.992Z,102883.56
2023-02-11T05:09:41.089Z,102885.22
2023-02-11T05:12:11.259Z,102885.00
2023-02-11T05:14:41.338Z,102888.31
2023-02-11T05:17:11.575Z,102894.53
2023-02-11T05:19:41.651Z,102894.91
2023-02-11T05:22:14.993Z,102898.66
2023-02-11T05:24:45.026Z,102896.97
2023-02-11T05:27:15.197Z,102892.09
2023-02-11T05:29:45.303Z,102882.25
2023-02-11T05:32:15.365Z,102854.63
2023-02-11T05:34:45.590Z,102889.63
2023-02-11T05:37:18.310Z,102881.84
2023-02-11T05:39:48.444Z,102892.09
2023-02-11T05:42:18.558Z,102840.47
2023-02-11T05:44:50.535Z,102898.19
2023-02-11T05:47:20.839Z,102891.25
2023-02-11T05:49:50.935Z,102890.31
2023-02-11T05:52:23.956Z,102884.78
2023-02-11T05:54:54.555Z,102884.09
2023-02-11T05:57:24.673Z,102886.84
2023-02-11T05:59:54.787Z,102888.41
2023-02-11T06:02:24.895Z,102895.28
2023-02-11T06:04:55.012Z,102861.03
2023-02-11T06:07:27.637Z,102891.03
2023-02-11T06:09:57.765Z,102892.66
2023-02-11T06:12:27.958Z,102888.00
2023-02-11T06:14:58.025Z,102890.88
2023-02-11T06:17:29.280Z,102890.75
2023-02-11T06:20:08.739Z,102898.38
2023-02-11T06:22:44.331Z,102904.19
2023-02-11T06:25:19.373Z,102902.56
2023-02-11T06:27:51.706Z,102902.94
2023-02-11T06:30:25.792Z,102910.84
2023-02-11T06:33:05.831Z,102908.22
2023-02-11T06:35:36.883Z,102908.91
2023-02-11T06:38:10.784Z,102909.84
2023-02-11T06:40:42.512Z,102909.34
2023-02-11T06:43:12.876Z,102905.59
2023-02-11T06:45:50.159Z,102898.84
2023-02-11T06:48:20.280Z,102855.50
2023-02-11T06:51:02.626Z,102886.91
2023-02-11T06:53:44.381Z,102866.34
2023-02-11T06:56:18.187Z,102870.25
2023-02-11T06:58:58.589Z,102901.91
2023-02-11T07:01:30.494Z,102873.03
2023-02-11T07:04:01.797Z,102889.59
2023-02-11T07:06:32.545Z,102885.34
2023-02-11T07:09:20.406Z,102878.31
2023-02-11T07:11:51.809Z,102878.47
2023-02-11T07:14:24.525Z,102877.66
2023-02-11T07:16:56.401Z,102883.69
2023-02-11T07:19:26.475Z,102875.78
2023-02-11T07:21:56.572Z,102870.69
2023-02-11T07:24:34.241Z,102869.44
2023-02-11T07:27:07.855Z,102873.06
2023-02-11T07:29:43.157Z,102861.16
2023-02-11T07:32:15.915Z,102862.97
2023-02-11T07:34:46.088Z,102825.44
2023-02-11T07:37:16.539Z,102866.22
2023-02-11T07:39:57.494Z,102874.09
2023-02-11T07:42:29.313Z,102866.91
2023-02-11T07:44:59.591Z,102852.75
2023-02-11T07:47:29.722Z,102870.66
2023-02-11T07:50:02.988Z,102856.22
2023-02-11T07:52:33.558Z,102862.31
2023-02-11T07:55:11.259Z,102859.53
2023-02-11T07:57:42.913Z,102862.13
2023-02-11T08:00:23.833Z,102863.09
2023-02-11T08:02:55.027Z,102864.47
2023-02-11T08:05:25.053Z,102855.88
2023-02-11T08:07:55.665Z,102858.47
2023-02-11T08:10:28.649Z,102853.88
2023-02-11T08:12:59.147Z,102821.59
2023-02-11T08:15:29.334Z,102829.72
2023-02-11T08:17:59.357Z,102841.88
2023-02-11T08:20:29.566Z,102840.50
2023-02-11T08:22:59.688Z,102827.88
2023-02-11T08:25:32.670Z,102842.09
2023-02-11T08:28:02.950Z,102832.38
2023-02-11T08:30:33.080Z,102839.81
2023-02-11T08:33:03.416Z,102835.75
2023-02-11T08:35:33.938Z,102828.75
2023-02-11T08:38:06.515Z,102834.81
2023-02-11T08:40:40.588Z,102834.88
2023-02-11T08:43:13.671Z,102832.50
2023-02-11T08:45:48.934Z,102834.22
2023-02-11T08:48:21.799Z,102837.69
2023-02-11T08:50:51.963Z,102835.28
2023-02-11T08:53:22.178Z,102838.16
2023-02-11T08:55:56.785Z,102840.03
2023-02-11T08:58:26.970Z,102836.78
2023-02-11T09:00:57.067Z,102835.88
2023-02-11T09:03:27.342Z,102843.66
2023-02-11T09:05:57.557Z,102842.97
2023-02-11T09:08:27.706Z,102848.66
2023-02-11T09:11:02.158Z,102815.13
2023-02-11T09:13:32.515Z,102848.78
2023-02-11T09:16:04.901Z,102840.84
2023-02-11T09:18:35.632Z,102842.19
2023-02-11T09:21:08.111Z,102842.84
2023-02-11T09:23:43.931Z,102854.00
2023-02-11T09:26:18.832Z,102840.78
2023-02-11T09:28:49.494Z,102849.91
2023-02-11T09:31:23.495Z,102834.06
2023-02-11T09:33:56.163Z,102850.28
2023-02-11T09:36:28.975Z,102836.09
2023-02-11T09:39:02.115Z,102843.75
2023-02-11T09:41:47.586Z,102845.41
2023-02-11T09:44:23.066Z,102835.03
2023-02-11T09:46:59.740Z,102807.22
2023-02-11T09:49:38.567Z,102826.03
2023-02-11T09:52:14.441Z,102823.25
2023-02-11T09:54:52.642Z,102822.47
2023-02-11T09:57:29.169Z,102806.13
2023-02-11T10:00:00.892Z,102775.47
2023-02-11T10:02:40.081Z,102805.16
2023-02-11T10:05:30.918Z,102813.47
2023-02-11T10:08:10.050Z,102799.72
2023-02-11T10:10:54.205Z,102785.50
2023-02-11T10:13:51.931Z,102784.19
2023-02-11T10:16:33.083Z,102773.59
2023-02-11T10:19:22.527Z,102774.59
2023-02-11T10:22:02.815Z,102753.56
2023-02-11T10:24:34.537Z,102770.63
2023-02-11T10:27:11.908Z,102758.69
2023-02-11T10:29:49.447Z,102754.38
2023-02-11T10:32:30.901Z,102743.09
2023-02-11T10:35:05.919Z,102745.44
2023-02-11T10:37:36.360Z,102743.41
2023-02-11T10:40:07.010Z,102743.25
2023-02-11T10:42:39.138Z,102733.63
2023-02-11T10:45:22.841Z,102734.28
2023-02-11T10:47:52.989Z,102722.97
2023-02-11T10:50:26.723Z,102722.31
2023-02-11T10:53:14.904Z,102717.78
2023-02-11T10:55:53.444Z,102702.34
2023-02-11T10:58:29.629Z,102696.53
2023-02-11T11:01:12.974Z,102704.78
2023-02-11T11:03:52.584Z,102704.09
2023-02-11T11:06:33.754Z,102690.88
2023-02-11T11:09:04.818Z,102709.56
2023-02-11T11:11:34.882Z,102688.66
2023-02-11T11:14:05.972Z,102699.19
2023-02-11T11:16:39.582Z,102690.06
2023-02-11T11:19:28.375Z,102685.63
2023-02-11T11:22:00.527Z,102686.31
2023-02-11T11:24:35.353Z,102672.66
2023-02-11T11:27:08.402Z,102676.66
2023-02-11T11:29:41.601Z,102664.75
2023-02-11T11:32:23.464Z,102665.53
2023-02-11T11:34:55.866Z,102667.00
2023-02-11T11:37:29.058Z,102662.63
2023-02-11T11:40:02.117Z,102653.91
2023-02-11T11:42:34.065Z,102652.47
2023-02-11T11:45:06.670Z,102650.66
2023-02-11T11:47:46.212Z,102635.63
2023-02-11T11:50:29.735Z,102641.19
2023-02-11T11:53:07.696Z,102624.03
2023-02-11T11:55:42.941Z,102606.63
2023-02-11T11:58:18.344Z,102638.47
2023-02-11T12:01:00.905Z,102628.94
2023-02-11T12:04:02.205Z,102631.44
2023-02-11T12:06:39.229Z,102627.19
2023-02-11T12:09:19.628Z,102612.53
2023-02-11T12:12:04.631Z,102613.34
2023-02-11T12:14:46.398Z,102606.66
2023-02-11T12:17:25.560Z,102601.63
2023-02-11T12:20:21.244Z,102587.31
2023-02-11T12:23:02.904Z,102588.41
2023-02-11T12:25:38.679Z,102570.97
2023-02-11T12:28:25.519Z,102585.75
2023-02-11T12:31:27.015Z,102576.38
2023-02-11T12:34:17.553Z,102578.47
2023-02-11T12:37:07.932Z,102571.16
2023-02-11T12:39:46.208Z,102576.47
2023-02-11T12:42:42.894Z,102571.72
2023-02-11T12:45:24.932Z,102570.88
2023-02-11T12:48:13.047Z,102563.97
2023-02-11T12:50:56.939Z,102560.38
2023-02-11T12:53:55.816Z,102556.69
2023-02-11T12:56:33.727Z,102562.13
2023-02-11T12:59:08.285Z,102530.03
2023-02-11T13:01:43.023Z,102538.72
2023-02-11T13:04:21.368Z,102556.28
2023-02-11T13:06:55.156Z,102547.53
2023-02-11T13:09:33.544Z,102507.13
2023-02-11T13:12:29.198Z,102543.59
2023-02-11T13:15:05.020Z,102532.94
2023-02-11T13:17:43.782Z,102513.16
2023-02-11T13:20:24.702Z,102544.34
2023-02-11T13:23:03.025Z,102540.66
2023-02-11T13:25:40.786Z,102526.66
2023-02-11T13:28:25.759Z,102521.50
2023-02-11T13:31:02.733Z,102529.81
2023-02-11T13:33:39.921Z,102530.03
2023-02-11T13:36:20.929Z,102526.19
2023-02-11T13:38:58.931Z,102522.25
2023-02-11T13:41:38.245Z,102513.50
2023-02-11T13:44:27.541Z,102514.44
2023-02-11T13:47:01.964Z,102513.28
2023-02-11T13:49:41.061Z,102521.78
2023-02-11T13:52:25.029Z,102521.63
2023-02-11T13:54:57.801Z,102506.13
2023-02-11T13:58:11.036Z,102504.31
2023-02-11T14:00:52.044Z,102500.53
2023-02-11T14:03:48.022Z,102503.00
2023-02-11T14:06:37.364Z,102501.91
2023-02-11T14:09:38.793Z,102496.72
2023-02-11T14:12:38.555Z,102486.25
2023-02-11T14:15:28.214Z,102474.22
2023-02-11T14:17:58.392Z,102475.22
2023-02-11T14:20:42.147Z,102478.19
2023-02-11T14:23:27.391Z,102458.53
2023-02-11T14:26:11.889Z,102434.22
2023-02-11T14:28:46.934Z,102449.19
2023-02-11T14:31:24.165Z,102429.31
2023-02-11T14:34:24.543Z,102445.22
2023-02-11T14:37:06.311Z,102444.69
2023-02-11T14:39:54.225Z,102402.69
2023-02-11T14:42:27.824Z,102433.38
2023-02-11T14:45:01.134Z,102377.63
2023-02-11T14:47:43.522Z,102439.16
2023-02-11T14:50:22.279Z,102440.06
2023-02-11T14:52:53.257Z,102432.50
2023-02-11T14:55:29.953Z,102436.22
2023-02-11T14:58:17.494Z,102434.50
2023-02-11T15:00:53.062Z,102427.91
2023-02-11T15:03:38.245Z,102403.16
2023-02-11T15:06:15.630Z,102428.63
2023-02-11T15:08:48.556Z,102436.78
2023-02-11T15:11:22.713Z,102439.38
2023-02-11T15:13:55.520Z,102437.25
2023-02-11T15:16:27.916Z,102427.16
2023-02-11T15:19:05.156Z,102401.38
2023-02-11T15:21:37.755Z,102437.50
2023-02-11T15:24:24.479Z,102439.28
2023-02-11T15:27:05.592Z,102419.94
2023-02-11T15:29:41.074Z,102435.69
2023-02-11T15:32:18.080Z,102430.34
2023-02-11T15:34:53.017Z,102432.94
2023-02-11T15:37:25.695Z,102411.56
2023-02-11T15:39:56.750Z,102414.88
2023-02-11T15:42:28.203Z,102408.91
2023-02-11T15:45:29.236Z,102409.88
2023-02-11T15:48:03.055Z,102402.03
2023-02-11T15:50:40.860Z,102402.03
2023-02-11T15:53:25.991Z,102404.44
2023-02-11T15:56:00.376Z,102402.28
2023-02-11T15:58:30.567Z,102414.13
2023-02-11T16:01:00.809Z,102415.53
2023-02-11T16:03:33.186Z,102418.75
2023-02-11T16:06:21.621Z,102425.66
2023-02-11T16:09:03.030Z,102401.88
2023-02-11T16:11:34.977Z,102404.38
2023-02-11T16:14:22.362Z,102417.47
2023-02-11T16:16:55.220Z,102413.91
2023-02-11T16:19:27.768Z,102421.44
2023-02-11T16:22:03.378Z,102409.91
2023-02-11T16:24:36.297Z,102421.19
2023-02-11T16:27:09.615Z,102423.38
2023-02-11T16:29:43.758Z,102423.22
2023-02-11T16:32:22.631Z,102419.91
2023-02-11T16:34:53.770Z,102417.63
2023-02-11T16:37:27.070Z,102418.63
2023-02-11T16:39:58.344Z,102420.00
2023-02-11T16:42:28.403Z,102419.19
2023-02-11T16:44:59.977Z,102408.09
2023-02-11T16:47:32.680Z,102408.66
2023-02-11T16:50:04.628Z,102413.34
2023-02-11T16:52:38.795Z,102395.66
2023-02-11T16:55:09.531Z,102376.25
2023-02-11T16:57:39.651Z,102407.94
2023-02-11T17:00:11.552Z,102416.28
2023-02-11T17:02:42.357Z,102362.91
2023-02-11T17:05:23.115Z,102414.34
2023-02-11T17:07:55.852Z,102395.50
2023-02-11T17:10:26.854Z,102396.69
2023-02-11T17:12:56.587Z,102390.09
2023-02-11T17:15:26.619Z,102386.72
2023-02-11T17:17:56.730Z,102389.56
2023-02-11T17:20:27.197Z,102395.06
2023-02-11T17:23:00.745Z,102389.84
2023-02-11T17:25:31.362Z,102383.63
2023-02-11T17:28:01.485Z,102391.38
2023-02-11T17:30:31.611Z,102390.47
2023-02-11T17:33:01.746Z,102397.63
2023-02-11T17:35:31.886Z,102391.56
2023-02-11T17:38:04.642Z,102397.88
2023-02-11T17:40:34.646Z,102409.03
2023-02-11T17:43:04.728Z,102412.25
2023-02-11T17:45:34.757Z,102407.28
2023-02-11T17:48:04.953Z,102404.19
2023-02-11T17:50:38.679Z,102406.38
2023-02-11T17:53:11.378Z,102400.22
2023-02-11T17:55:41.559Z,102391.34
2023-02-11T17:58:11.641Z,102391.66
2023-02-11T18:00:41.744Z,102378.09
2023-02-11T18:03:11.997Z,102379.09
2023-02-11T18:05:42.320Z,102373.13
2023-02-11T18:08:15.059Z,102365.53
2023-02-11T18:10:45.736Z,102370.19
2023-02-11T18:13:15.868Z,102362.31
2023-02-11T18:15:46.098Z,102368.91
2023-02-11T18:18:16.284Z,102360.97
2023-02-11T18:20:47.932Z,102367.63
2023-02-11T18:23:20.561Z,102364.69
2023-02-11T18:25:50.971Z,102370.34
2023-02-11T18:28:21.331Z,102364.22
2023-02-11T18:30:51.493Z,102369.69
2023-02-11T18:33:21.555Z,102364.09
2023-02-11T18:35:51.983Z,102369.41
2023-02-11T18:38:25.011Z,102367.94
2023-02-11T18:40:55.097Z,102373.25
2023-02-11T18:43:25.311Z,102360.34
2023-02-11T18:45:55.631Z,102366.81
2023-02-11T18:48:26.859Z,102351.16
2023-02-11T18:50:58.304Z,102358.56
2023-02-11T18:53:31.158Z,102364.44
2023-02-11T18:56:01.737Z,102355.97
2023-02-11T18:58:31.827Z,102363.94
2023-02-11T19:01:02.194Z,102346.41
2023-02-11T19:03:32.354Z,102309.44
2023-02-11T19:06:02.428Z,102338.44
2023-02-11T19:08:35.165Z,102340.06
2023-02-11T19:11:07.987Z,102339.72
2023-02-11T19:13:38.113Z,102339.72
2023-02-11T19:16:11.471Z,102345.03
2023-02-11T19:18:41.944Z,102345.03
2023-02-11T19:21:13.259Z,102345.56
2023-02-11T19:23:45.911Z,102349.03
2023-02-11T19:26:15.954Z,102363.59
2023-02-11T19:28:45.986Z,102353.53
2023-02-11T19:31:16.875Z,102352.84
2023-02-11T19:33:46.711Z,102370.53
2023-02-11T19:36:18.747Z,102345.34
2023-02-11T19:38:51.476Z,102362.09
2023-02-11T19:41:23.241Z,102354.97
2023-02-11T19:43:56.772Z,102310.03
2023-02-11T19:46:28.049Z,102344.38
2023-02-11T19:48:58.418Z,102338.78
2023-02-11T19:51:28.663Z,102338.44
2023-02-11T19:54:02.283Z,102341.25
2023-02-11T19:56:32.544Z,102342.44
2023-02-11T19:59:04.831Z,102338.31
2023-02-11T20:01:34.946Z,102341.97
2023-02-11T20:04:05.101Z,102341.16
2023-02-11T20:06:36.801Z,102336.03
2023-02-11T20:09:11.742Z,102334.38
2023-02-11T20:11:42.775Z,102330.88
2023-02-11T20:14:14.919Z,102336.56
2023-02-11T20:16:49.831Z,102324.66
2023-02-11T20:19:22.745Z,102325.28
2023-02-11T20:21:58.260Z,102320.66
2023-02-11T20:24:31.005Z,102322.63
2023-02-11T20:27:01.064Z,102319.97
2023-02-11T20:29:31.981Z,102315.72
2023-02-11T20:32:03.231Z,102298.97
2023-02-11T20:34:33.036Z,102301.78
2023-02-11T20:37:04.255Z,102288.97
2023-02-11T20:39:41.025Z,102288.75
2023-02-11T20:42:12.614Z,102286.88
2023-02-11T20:44:42.666Z,102295.50
2023-02-11T20:47:12.791Z,102289.53
2023-02-11T20:49:42.887Z,102294.84
2023-02-11T20:52:13.024Z,102291.19
2023-02-11T20:54:45.930Z,102292.03
2023-02-11T20:57:16.038Z,102291.56
2023-02-11T20:59:46.110Z,102294.50
2023-02-11T21:02:16.212Z,102290.81
2023-02-11T21:04:46.239Z,102287.19
2023-02-11T21:07:16.341Z,102285.19
2023-02-11T21:09:49.085Z,102286.03
2023-02-11T21:12:19.168Z,102275.66
2023-02-11T21:14:49.368Z,102283.00
2023-02-11T21:17:19.488Z,102281.66
2023-02-11T21:19:49.632Z,102283.09
2023-02-11T21:22:19.666Z,102281.94
2023-02-11T21:24:52.567Z,102275.16
2023-02-11T21:27:23.522Z,102276.09
2023-02-11T21:29:54.785Z,102280.56
2023-02-11T21:32:24.989Z,102264.00
2023-02-11T21:34:55.225Z,102266.50
2023-02-11T21:37:26.543Z,102251.56
2023-02-11T21:39:59.196Z,102245.81
2023-02-11T21:42:29.196Z,102245.44
2023-02-11T21:44:59.645Z,102240.66
2023-02-11T21:47:29.930Z,102247.50
2023-02-11T21:49:59.980Z,102245.03
2023-02-11T21:52:30.146Z,102242.41
2023-02-11T21:55:03.535Z,102248.50
2023-02-11T21:57:33.998Z,102237.88
2023-02-11T22:00:04.269Z,102233.16
2023-02-11T22:02:35.677Z,102246.88
2023-02-11T22:05:06.888Z,102236.44
2023-02-11T22:07:38.653Z,102234.78
2023-02-11T22:10:12.807Z,102189.06
2023-02-11T22:12:43.110Z,102229.59
2023-02-11T22:15:13.466Z,102222.66
2023-02-11T22:17:43.827Z,102227.22
2023-02-11T22:20:15.848Z,102223.56
2023-02-11T22:22:45.937Z,102224.09
2023-02-11T22:25:18.854Z,102227.22
2023-02-11T22:27:48.916Z,102200.69
2023-02-11T22:30:19.326Z,102235.16
2023-02-11T22:32:49.451Z,102235.00
2023-02-11T22:35:19.569Z,102230.34
2023-02-11T22:37:49.662Z,102223.22
2023-02-11T22:40:23.577Z,102226.50
2023-02-11T22:42:53.646Z,102221.22
2023-02-11T22:45:23.753Z,102212.63
2023-02-11T22:47:54.363Z,102217.56
2023-02-11T22:50:24.450Z,102178.03
2023-02-11T22:52:54.623Z,102214.25
2023-02-11T22:55:27.401Z,102215.09
2023-02-11T22:57:57.690Z,102193.41
2023-02-11T23:00:33.784Z,102217.44
2023-02-11T23:03:03.970Z,102210.84
2023-02-11T23:05:34.083Z,102209.84
2023-02-11T23:08:04.091Z,102220.00
2023-02-11T23:10:37.516Z,102210.84
2023-02-11T23:13:10.493Z,102217.84
2023-02-11T23:15:42.950Z,102195.84
2023-02-11T23:18:14.436Z,102197.50
2023-02-11T23:20:46.576Z,102209.38
2023-02-11T23:23:16.585Z,102209.38
2023-02-11T23:25:49.181Z,102199.09
2023-02-11T23:28:19.337Z,102204.91
2023-02-11T23:30:49.571Z,102191.84
2023-02-11T23:33:19.677Z,102189.84
2023-02-11T23:35:49.807Z,102173.97
2023-02-11T23:38:19.894Z,102174.94
2023-02-11T23:40:52.536Z,102180.41
2023-02-11T23:43:24.378Z,102181.06
2023-02-11T23:45:55.056Z,102182.06
2023-02-11T23:48:25.287Z,102181.69
2023-02-11T23:50:55.442Z,102178.88
2023-02-11T23:53:25.494Z,102180.88
2023-02-11T23:55:58.102Z,102183.53
2023-02-11T23:58:28.240Z,102177.75
